KMCD

Details ICAO KMCD
Name MACKINAC ISLAND
Region United States
Timezone America/Detroit (UTC-5.0)
Plans Departing 10
Arriving 27
Stats Elevation 740 ft / 226 m (AMSL)
Location 45.864935° -84.637344°
Runways 1
Magnetic Variation 7.132° W
Sunrise 2017-12-12 13:12:25 UTC / 2017-12-12 08:12:25 Local
Sunset 2017-12-12 21:55:14 UTC / 2017-12-12 16:55:14 Local
Advertisement - Login to hide

Runways

ID Width Length Bearing (true) Bearing (mag) Surface Threshold Offset Overrun Length
08 75 ft / 23 m 3,492 ft / 1,065 m 75.21° 82.34° Asphalt 0 ft / 0 m 0 ft / 0 m
26 75 ft / 23 m 3,492 ft / 1,065 m 255.22° 262.35° Asphalt 0 ft / 0 m 0 ft / 0 m

Map

Weather


0- 5 10 15 20 25 30 35+ Temperature / ° C

Clouds and Precipitation
Forecast for 2017-12-13 00:00 UTC. Updated an hour ago

Ground ~20,000 ft ~40,000 ft Winds

METAR

KMCD 122035Z AUTO 32017G23KT 10SM BKN027 BKN034 M11/M17 A2987 RMK AO2 T11111175

TAF

Not found

Frequencies

Recorded 118.27 MHz AWOS 3
Unicom 122.70 MHz CTAF/UNICOM
Warning: Do not use this data for real-world aviation or navigation. No guarantee of current accuracy is given.